Startpagina
METAR-TAF:

METAR-TAF

Vliegvelden :

Vliegbasis Kleine-Brogel

Peer, België

breedte: 51-10N, lengte: 005-28E, hoogte: 55 m

Actueel weer

Dit bericht is 41 minuten geleden gemaakt, om 05:55 UTC
Wind 1 kt uit variabele richting
Temperatuur 4°C
Vochtigheid 100%
Druk 1022 hPa
Zicht: 5000 m
Weinig wolken op 26000 ft
nevel

METAR: EBBL 180555Z VRB01KT 5000 BR FEW260 04/04 Q1022 WHT BLU TEMPO WHT

Tijdstip: 08:36 (06:36 UTC)

Verwachting

Dit bericht is 55 minuten geleden gemaakt, om 05:41 UTC
Verwachting geldig van 18 om 07 UTC tot 18 om 16 UTC
Wind 6 kt uit het zuiden
Zicht 10 km of meer
Weinig wolken op 8000 ft
Verspreide wolken op 26000 ft

TAF: EBBL 180541Z 1807/1816 18006KT 9999 FEW080 SCT260

Waarnemingen en weersverwachtingen van meer dan 4000 vliegvelden (METAR en TAF).

De beschikbare stations zijn de gele en rode punten op de kaart.

Ga met uw muis naar het station om de naam te zien.

Klik dan om waarnemingen en weersverwachtingen te zien.

kaart wijzigen: klik op de groene knoppen met een zwart kruis om in te zoomen, op de groene knop met een streepje om uit te zoomen of op de groene pijlen voor aangrenzende kaarten.


METAR-TAF: